Aspen-Gerbaz, Colorado
Current Conditions -  °F | °C
As of 1:41 AM on Sunday 21 Dec 2014 (Local Time) from KASE Reporting Station
Light Snow Light Snow  
Wind Chill: -4°   Ceiling: 2600
Heat Index: -4°   Visibility: 2mi
Dew Point: -6°   Wind: 0mph
Humidity: 91%   Direction: NA
Pressure: 30.07"   Gusts: NA
Location:  39.1256°N, 106.797°W
Report Text: KASE 210841Z AUTO 00000KT 2SM -SN BR OVC026 M04/M06 A3007 RMK AO2 P0000 T10441056
Loading
Personal Weather Stations






























Interactive Weather Map New forecast layout! Learn more

10-Day Weather Forecast

Advertisements
Track Severe Weather on mobile